Skip Navigation Links Skip Navigation Links

Current Weather

Sarnia Airport, Sarnia, Ont.

For information only: do not use for flight planning or navigation.
Latest weather
Observation time Saturday, October 19, 2019 6:00 AM EDT
Local time Saturday, October 19, 2019 6:22 AM EDT
Flight conditions Visual Meteorological Conditions
Winds
Wind direction Southeast (140°)
Wind speed 3 mph
Visibility 9 mi.
Sky condition
Ceiling unlimited
Sky clear
Temperature 36°F
Dewpoint 34°F
Altimeter 30.03 in.Hg
Derived measurements
Relative humidity 93%
Wind chill 33°F
Density altitude -1429 ft.
Sea-level pressure 30.05 in.Hg
Remarks
Fully automated report.
METAR CYZR 191000Z AUTO 14003KT 9SM CLR 02/01 A3003 RMK RVR MISG SLP175

Settings

Location code

InnerDrive.Weather 4.0.6770.0 Release CLR 4.0.30319.42000
Copyright ©2018 Inner Drive Technology. All rights reserved. Portions Copyright ©1986-2018 David Braverman.

Find weather

Site navigation


Skip Navigation Links

Place info

Page info

PayPal - The safer, easier way to pay online!

Return home.

Copyright ©2019 Inner Drive Technology. Purveyors of fine, hand-crafted computer software. Page printed 2019-10-19T10:22:06 UTC.